sensor_id;sensor_type;location;lat;lon;timestamp;pressure;altitude;pressure_sealevel;temperature;humidity
73516;BME280;61763;51.416;5.442;2023-05-09T00:01:32;101702.34;;;13.65;100.00
73516;BME280;61763;51.416;5.442;2023-05-09T00:03:58;101705.22;;;13.62;100.00
73516;BME280;61763;51.416;5.442;2023-05-09T00:06:24;101697.72;;;13.67;100.00
73516;BME280;61763;51.416;5.442;2023-05-09T00:08:52;101695.25;;;13.63;100.00
73516;BME280;61763;51.416;5.442;2023-05-09T00:11:17;101691.66;;;13.62;100.00
73516;BME280;61763;51.416;5.442;2023-05-09T00:13:42;101695.31;;;13.61;100.00
73516;BME280;61763;51.416;5.442;2023-05-09T00:16:08;101684.38;;;13.63;100.00
73516;BME280;61763;51.416;5.442;2023-05-09T00:18:35;101677.00;;;13.66;100.00
73516;BME280;61763;51.416;5.442;2023-05-09T00:21:01;101679.94;;;13.62;100.00
73516;BME280;61763;51.416;5.442;2023-05-09T00:23:28;101679.88;;;13.63;100.00
73516;BME280;61763;51.416;5.442;2023-05-09T00:25:53;101671.34;;;13.71;100.00
73516;BME280;61763;51.416;5.442;2023-05-09T00:28:19;101673.53;;;13.63;100.00
73516;BME280;61763;51.416;5.442;2023-05-09T00:30:44;101663.94;;;13.56;100.00
73516;BME280;61763;51.416;5.442;2023-05-09T00:33:10;101664.94;;;13.55;100.00
73516;BME280;61763;51.416;5.442;2023-05-09T00:35:35;101657.75;;;13.54;100.00
73516;BME280;61763;51.416;5.442;2023-05-09T00:38:01;101654.16;;;13.53;100.00
73516;BME280;61763;51.416;5.442;2023-05-09T00:40:26;101653.25;;;13.53;100.00
73516;BME280;61763;51.416;5.442;2023-05-09T00:42:52;101652.31;;;13.54;100.00
73516;BME280;61763;51.416;5.442;2023-05-09T00:45:17;101659.50;;;13.55;100.00
73516;BME280;61763;51.416;5.442;2023-05-09T00:47:42;101656.72;;;13.56;100.00
73516;BME280;61763;51.416;5.442;2023-05-09T00:50:08;101650.91;;;13.64;100.00
73516;BME280;61763;51.416;5.442;2023-05-09T00:52:34;101649.88;;;13.66;100.00
73516;BME280;61763;51.416;5.442;2023-05-09T00:55:01;101647.16;;;13.66;100.00
73516;BME280;61763;51.416;5.442;2023-05-09T00:57:26;101645.31;;;13.67;100.00
73516;BME280;61763;51.416;5.442;2023-05-09T00:59:51;101636.16;;;13.70;100.00
73516;BME280;61763;51.416;5.442;2023-05-09T01:02:17;101624.34;;;13.71;100.00
73516;BME280;61763;51.416;5.442;2023-05-09T01:04:44;101626.09;;;13.72;100.00
73516;BME280;61763;51.416;5.442;2023-05-09T01:07:29;101613.56;;;13.69;100.00
73516;BME280;61763;51.416;5.442;2023-05-09T01:12:53;101607.66;;;13.61;100.00
73516;BME280;61763;51.416;5.442;2023-05-09T01:18:05;101622.41;;;13.55;100.00
73516;BME280;61763;51.416;5.442;2023-05-09T01:20:51;101610.69;;;13.55;100.00
73516;BME280;61763;51.416;5.442;2023-05-09T01:31:39;101591.94;;;13.50;100.00
73516;BME280;61763;51.416;5.442;2023-05-09T01:34:07;101586.53;;;13.50;100.00
73516;BME280;61763;51.416;5.442;2023-05-09T01:36:36;101581.22;;;13.47;100.00
73516;BME280;61763;51.416;5.442;2023-05-09T01:39:03;101578.59;;;13.45;100.00
73516;BME280;61763;51.416;5.442;2023-05-09T01:41:30;101581.53;;;13.41;100.00
73516;BME280;61763;51.416;5.442;2023-05-09T01:44:01;101578.91;;;13.39;100.00
73516;BME280;61763;51.416;5.442;2023-05-09T01:46:28;101578.22;;;13.36;100.00
73516;BME280;61763;51.416;5.442;2023-05-09T01:48:55;101577.34;;;13.33;100.00
73516;BME280;61763;51.416;5.442;2023-05-09T01:51:22;101568.34;;;13.33;100.00
73516;BME280;61763;51.416;5.442;2023-05-09T01:53:49;101567.66;;;13.29;100.00
73516;BME280;61763;51.416;5.442;2023-05-09T01:56:16;101581.97;;;13.31;100.00
73516;BME280;61763;51.416;5.442;2023-05-09T01:58:43;101563.25;;;13.27;100.00
73516;BME280;61763;51.416;5.442;2023-05-09T02:01:12;101570.56;;;13.25;100.00
73516;BME280;61763;51.416;5.442;2023-05-09T02:03:39;101568.59;;;13.28;100.00
73516;BME280;61763;51.416;5.442;2023-05-09T02:06:06;101559.88;;;13.22;100.00
73516;BME280;61763;51.416;5.442;2023-05-09T02:08:32;101566.34;;;13.19;100.00
73516;BME280;61763;51.416;5.442;2023-05-09T02:10:58;101556.38;;;13.20;100.00
73516;BME280;61763;51.416;5.442;2023-05-09T02:13:23;101559.31;;;13.15;100.00
73516;BME280;61763;51.416;5.442;2023-05-09T02:15:49;101564.59;;;13.18;100.00
73516;BME280;61763;51.416;5.442;2023-05-09T02:18:15;101556.84;;;13.10;100.00
73516;BME280;61763;51.416;5.442;2023-05-09T02:20:41;101565.91;;;13.09;100.00
73516;BME280;61763;51.416;5.442;2023-05-09T02:23:07;101565.91;;;13.09;100.00
73516;BME280;61763;51.416;5.442;2023-05-09T02:25:33;101567.09;;;13.04;100.00
73516;BME280;61763;51.416;5.442;2023-05-09T02:27:59;101575.38;;;13.01;100.00
73516;BME280;61763;51.416;5.442;2023-05-09T02:30:30;101569.00;;;13.02;100.00
73516;BME280;61763;51.416;5.442;2023-05-09T02:33:01;101560.28;;;12.95;100.00
73516;BME280;61763;51.416;5.442;2023-05-09T02:35:27;101566.81;;;12.91;100.00
73516;BME280;61763;51.416;5.442;2023-05-09T02:37:53;101566.97;;;12.88;100.00
73516;BME280;61763;51.416;5.442;2023-05-09T02:40:21;101570.50;;;12.90;100.00
73516;BME280;61763;51.416;5.442;2023-05-09T02:42:46;101567.03;;;12.86;100.00
73516;BME280;61763;51.416;5.442;2023-05-09T02:45:11;101559.06;;;12.83;100.00
73516;BME280;61763;51.416;5.442;2023-05-09T02:47:37;101556.50;;;12.80;100.00
73516;BME280;61763;51.416;5.442;2023-05-09T02:50:04;101548.59;;;12.75;100.00
73516;BME280;61763;51.416;5.442;2023-05-09T02:52:29;101547.06;;;12.70;100.00
73516;BME280;61763;51.416;5.442;2023-05-09T02:54:55;101544.59;;;12.65;100.00
73516;BME280;61763;51.416;5.442;2023-05-09T02:57:21;101541.28;;;12.58;100.00
73516;BME280;61763;51.416;5.442;2023-05-09T02:59:46;101547.94;;;12.51;100.00
73516;BME280;61763;51.416;5.442;2023-05-09T03:02:11;101537.47;;;12.43;100.00
73516;BME280;61763;51.416;5.442;2023-05-09T03:04:37;101535.84;;;12.39;100.00
73516;BME280;61763;51.416;5.442;2023-05-09T03:07:03;101531.47;;;12.37;100.00
73516;BME280;61763;51.416;5.442;2023-05-09T03:09:28;101525.31;;;12.33;100.00
73516;BME280;61763;51.416;5.442;2023-05-09T03:11:54;101525.31;;;12.33;100.00
73516;BME280;61763;51.416;5.442;2023-05-09T03:14:20;101521.22;;;12.43;100.00
73516;BME280;61763;51.416;5.442;2023-05-09T03:16:45;101518.22;;;12.50;100.00
73516;BME280;61763;51.416;5.442;2023-05-09T03:19:10;101521.91;;;12.49;100.00
73516;BME280;61763;51.416;5.442;2023-05-09T03:21:36;101517.56;;;12.44;100.00
73516;BME280;61763;51.416;5.442;2023-05-09T03:24:01;101516.34;;;12.52;100.00
73516;BME280;61763;51.416;5.442;2023-05-09T03:26:28;101509.31;;;12.48;100.00
73516;BME280;61763;51.416;5.442;2023-05-09T03:28:54;101521.97;;;12.47;100.00
73516;BME280;61763;51.416;5.442;2023-05-09T03:31:19;101516.56;;;12.47;100.00
73516;BME280;61763;51.416;5.442;2023-05-09T03:33:45;101516.19;;;12.55;100.00
73516;BME280;61763;51.416;5.442;2023-05-09T03:36:10;101515.09;;;12.59;100.00
73516;BME280;61763;51.416;5.442;2023-05-09T03:38:36;101507.53;;;12.66;100.00
73516;BME280;61763;51.416;5.442;2023-05-09T03:41:01;101511.41;;;12.60;100.00
73516;BME280;61763;51.416;5.442;2023-05-09T03:43:26;101504.28;;;12.59;100.00
73516;BME280;61763;51.416;5.442;2023-05-09T03:45:52;101502.66;;;12.55;100.00
73516;BME280;61763;51.416;5.442;2023-05-09T03:48:17;101502.44;;;12.59;100.00
73516;BME280;61763;51.416;5.442;2023-05-09T03:50:43;101501.81;;;12.53;100.00
73516;BME280;61763;51.416;5.442;2023-05-09T03:53:08;101495.63;;;12.51;100.00
73516;BME280;61763;51.416;5.442;2023-05-09T03:55:34;101492.28;;;12.46;100.00
73516;BME280;61763;51.416;5.442;2023-05-09T03:57:59;101493.06;;;12.48;100.00
73516;BME280;61763;51.416;5.442;2023-05-09T04:00:25;101496.00;;;12.43;100.00
73516;BME280;61763;51.416;5.442;2023-05-09T04:02:52;101497.75;;;12.44;100.00
73516;BME280;61763;51.416;5.442;2023-05-09T04:05:18;101486.19;;;12.40;100.00
73516;BME280;61763;51.416;5.442;2023-05-09T04:07:44;101483.41;;;12.42;100.00
73516;BME280;61763;51.416;5.442;2023-05-09T04:10:10;101476.75;;;12.49;100.00
73516;BME280;61763;51.416;5.442;2023-05-09T04:12:35;101479.59;;;12.46;100.00
73516;BME280;61763;51.416;5.442;2023-05-09T04:15:01;101460.81;;;12.43;100.00
73516;BME280;61763;51.416;5.442;2023-05-09T04:17:26;101469.34;;;12.53;100.00
73516;BME280;61763;51.416;5.442;2023-05-09T04:19:52;101475.88;;;12.49;100.00
73516;BME280;61763;51.416;5.442;2023-05-09T04:22:17;101466.72;;;12.51;100.00
73516;BME280;61763;51.416;5.442;2023-05-09T04:24:42;101473.09;;;12.50;100.00
73516;BME280;61763;51.416;5.442;2023-05-09T04:27:08;101474.63;;;12.56;100.00
73516;BME280;61763;51.416;5.442;2023-05-09T04:29:33;101469.94;;;12.59;100.00
73516;BME280;61763;51.416;5.442;2023-05-09T04:32:00;101469.63;;;12.66;100.00
73516;BME280;61763;51.416;5.442;2023-05-09T04:34:26;101460.41;;;12.70;100.00
73516;BME280;61763;51.416;5.442;2023-05-09T04:36:51;101460.25;;;12.73;100.00
73516;BME280;61763;51.416;5.442;2023-05-09T04:39:17;101463.31;;;12.84;100.00
73516;BME280;61763;51.416;5.442;2023-05-09T04:41:43;101458.59;;;12.88;100.00
73516;BME280;61763;51.416;5.442;2023-05-09T04:44:14;101454.63;;;12.95;100.00
73516;BME280;61763;51.416;5.442;2023-05-09T04:46:40;101455.38;;;12.99;100.00
73516;BME280;61763;51.416;5.442;2023-05-09T04:49:05;101450.19;;;13.11;100.00
73516;BME280;61763;51.416;5.442;2023-05-09T04:51:31;101442.78;;;13.15;100.00
73516;BME280;61763;51.416;5.442;2023-05-09T04:53:56;101436.34;;;13.35;100.00
73516;BME280;61763;51.416;5.442;2023-05-09T04:56:22;101432.59;;;13.38;100.00
73516;BME280;61763;51.416;5.442;2023-05-09T04:58:47;101432.09;;;13.47;100.00
73516;BME280;61763;51.416;5.442;2023-05-09T05:01:13;101428.75;;;13.59;100.00
73516;BME280;61763;51.416;5.442;2023-05-09T05:03:38;101424.19;;;13.60;100.00
73516;BME280;61763;51.416;5.442;2023-05-09T05:06:04;101402.06;;;13.67;100.00
73516;BME280;61763;51.416;5.442;2023-05-09T05:08:30;101409.25;;;13.69;100.00
73516;BME280;61763;51.416;5.442;2023-05-09T05:10:56;101409.34;;;13.67;100.00
73516;BME280;61763;51.416;5.442;2023-05-09T05:13:21;101391.09;;;13.71;100.00
73516;BME280;61763;51.416;5.442;2023-05-09T05:15:46;101392.03;;;13.70;100.00
73516;BME280;61763;51.416;5.442;2023-05-09T05:18:13;101392.72;;;13.73;100.00
73516;BME280;61763;51.416;5.442;2023-05-09T05:20:41;101388.13;;;13.75;100.00
73516;BME280;61763;51.416;5.442;2023-05-09T05:23:08;101391.09;;;13.87;100.00
73516;BME280;61763;51.416;5.442;2023-05-09T05:25:33;101390.78;;;13.93;100.00
73516;BME280;61763;51.416;5.442;2023-05-09T05:27:59;101391.13;;;14.02;100.00
73516;BME280;61763;51.416;5.442;2023-05-09T05:30:24;101381.66;;;14.10;100.00
73516;BME280;61763;51.416;5.442;2023-05-09T05:32:50;101374.94;;;14.17;100.00
73516;BME280;61763;51.416;5.442;2023-05-09T05:35:15;101371.94;;;14.37;100.00
73516;BME280;61763;51.416;5.442;2023-05-09T05:37:41;101369.50;;;14.49;100.00
73516;BME280;61763;51.416;5.442;2023-05-09T05:40:08;101368.41;;;14.67;100.00
73516;BME280;61763;51.416;5.442;2023-05-09T05:42:34;101363.66;;;14.87;100.00
73516;BME280;61763;51.416;5.442;2023-05-09T05:44:59;101360.66;;;14.92;100.00
73516;BME280;61763;51.416;5.442;2023-05-09T05:47:31;101360.03;;;15.17;100.00
73516;BME280;61763;51.416;5.442;2023-05-09T05:50:00;101356.63;;;15.28;100.00
73516;BME280;61763;51.416;5.442;2023-05-09T05:52:26;101355.69;;;15.29;100.00
73516;BME280;61763;51.416;5.442;2023-05-09T05:54:52;101347.78;;;15.38;100.00
73516;BME280;61763;51.416;5.442;2023-05-09T05:57:18;101347.25;;;15.48;100.00
73516;BME280;61763;51.416;5.442;2023-05-09T05:59:45;101340.03;;;15.61;100.00
73516;BME280;61763;51.416;5.442;2023-05-09T06:02:11;101344.31;;;15.65;100.00
73516;BME280;61763;51.416;5.442;2023-05-09T06:04:37;101340.75;;;15.79;100.00
73516;BME280;61763;51.416;5.442;2023-05-09T06:07:02;101338.31;;;15.89;100.00
73516;BME280;61763;51.416;5.442;2023-05-09T06:09:28;101334.38;;;16.07;100.00
73516;BME280;61763;51.416;5.442;2023-05-09T06:11:53;101335.72;;;16.15;100.00
73516;BME280;61763;51.416;5.442;2023-05-09T06:14:18;101331.53;;;16.09;100.00
73516;BME280;61763;51.416;5.442;2023-05-09T06:16:44;101319.59;;;15.97;100.00
73516;BME280;61763;51.416;5.442;2023-05-09T06:19:09;101321.75;;;16.06;100.00
73516;BME280;61763;51.416;5.442;2023-05-09T06:21:35;101321.75;;;16.06;100.00
73516;BME280;61763;51.416;5.442;2023-05-09T06:24:00;101319.03;;;16.06;100.00
73516;BME280;61763;51.416;5.442;2023-05-09T06:26:27;101320.75;;;16.07;100.00
73516;BME280;61763;51.416;5.442;2023-05-09T06:28:53;101323.38;;;16.09;100.00
73516;BME280;61763;51.416;5.442;2023-05-09T06:31:18;101319.28;;;16.16;100.00
73516;BME280;61763;51.416;5.442;2023-05-09T06:33:44;101324.16;;;16.11;100.00
73516;BME280;61763;51.416;5.442;2023-05-09T06:36:10;101310.66;;;16.09;100.00
73516;BME280;61763;51.416;5.442;2023-05-09T06:38:35;101309.28;;;16.17;100.00
73516;BME280;61763;51.416;5.442;2023-05-09T06:41:01;101307.00;;;16.23;100.00
73516;BME280;61763;51.416;5.442;2023-05-09T06:43:26;101303.03;;;16.15;100.00
73516;BME280;61763;51.416;5.442;2023-05-09T06:45:52;101308.69;;;16.11;100.00
73516;BME280;61763;51.416;5.442;2023-05-09T06:48:17;101302.63;;;16.21;100.00
73516;BME280;61763;51.416;5.442;2023-05-09T06:50:42;101300.47;;;16.26;100.00
73516;BME280;61763;51.416;5.442;2023-05-09T06:53:08;101293.75;;;16.32;100.00
73516;BME280;61763;51.416;5.442;2023-05-09T06:55:33;101287.28;;;16.20;100.00
73516;BME280;61763;51.416;5.442;2023-05-09T06:57:59;101287.88;;;16.10;100.00
73516;BME280;61763;51.416;5.442;2023-05-09T07:00:24;101292.25;;;16.13;100.00
73516;BME280;61763;51.416;5.442;2023-05-09T07:02:49;101283.44;;;16.22;100.00
73516;BME280;61763;51.416;5.442;2023-05-09T07:05:15;101287.78;;;16.12;100.00
73516;BME280;61763;51.416;5.442;2023-05-09T07:07:40;101286.63;;;16.02;100.00
73516;BME280;61763;51.416;5.442;2023-05-09T07:10:06;101289.56;;;15.99;100.00
73516;BME280;61763;51.416;5.442;2023-05-09T07:12:32;101280.28;;;16.16;100.00
73516;BME280;61763;51.416;5.442;2023-05-09T07:14:58;101277.66;;;16.14;100.00
73516;BME280;61763;51.416;5.442;2023-05-09T07:17:23;101277.06;;;15.96;100.00
73516;BME280;61763;51.416;5.442;2023-05-09T07:19:49;101280.22;;;16.03;100.00
73516;BME280;61763;51.416;5.442;2023-05-09T07:22:15;101270.81;;;15.94;100.00
73516;BME280;61763;51.416;5.442;2023-05-09T07:24:40;101273.50;;;15.81;100.00
73516;BME280;61763;51.416;5.442;2023-05-09T07:27:06;101277.56;;;15.74;100.00
73516;BME280;61763;51.416;5.442;2023-05-09T07:29:31;101271.13;;;15.75;100.00
73516;BME280;61763;51.416;5.442;2023-05-09T07:31:56;101266.69;;;15.59;100.00
73516;BME280;61763;51.416;5.442;2023-05-09T07:34:22;101277.88;;;15.40;100.00
73516;BME280;61763;51.416;5.442;2023-05-09T07:36:49;101274.97;;;15.29;100.00
73516;BME280;61763;51.416;5.442;2023-05-09T07:39:14;101278.19;;;15.21;100.00
73516;BME280;61763;51.416;5.442;2023-05-09T07:41:41;101268.84;;;15.11;100.00
73516;BME280;61763;51.416;5.442;2023-05-09T07:44:06;101276.78;;;15.00;100.00
73516;BME280;61763;51.416;5.442;2023-05-09T07:46:34;101273.59;;;14.93;100.00
73516;BME280;61763;51.416;5.442;2023-05-09T07:48:59;101267.00;;;14.97;100.00
73516;BME280;61763;51.416;5.442;2023-05-09T07:51:24;101267.25;;;14.93;100.00
73516;BME280;61763;51.416;5.442;2023-05-09T07:53:50;101264.06;;;14.86;100.00
73516;BME280;61763;51.416;5.442;2023-05-09T07:56:15;101262.03;;;14.89;100.00
73516;BME280;61763;51.416;5.442;2023-05-09T07:58:41;101257.75;;;15.00;100.00
73516;BME280;61763;51.416;5.442;2023-05-09T08:01:06;101248.88;;;15.12;100.00
73516;BME280;61763;51.416;5.442;2023-05-09T08:03:32;101245.44;;;15.52;100.00
73516;BME280;61763;51.416;5.442;2023-05-09T08:05:57;101241.69;;;15.67;100.00
73516;BME280;61763;51.416;5.442;2023-05-09T08:08:22;101235.22;;;15.97;100.00
73516;BME280;61763;51.416;5.442;2023-05-09T08:10:48;101227.97;;;16.10;100.00
73516;BME280;61763;51.416;5.442;2023-05-09T08:13:14;101224.13;;;16.27;100.00
73516;BME280;61763;51.416;5.442;2023-05-09T08:15:39;101216.69;;;16.29;100.00
73516;BME280;61763;51.416;5.442;2023-05-09T08:18:05;101216.91;;;16.14;100.00
73516;BME280;61763;51.416;5.442;2023-05-09T08:20:30;101216.16;;;16.24;100.00
73516;BME280;61763;51.416;5.442;2023-05-09T08:22:56;101215.34;;;16.50;100.00
73516;BME280;61763;51.416;5.442;2023-05-09T08:25:21;101204.31;;;16.25;100.00
73516;BME280;61763;51.416;5.442;2023-05-09T08:27:47;101209.72;;;16.13;100.00
73516;BME280;61763;51.416;5.442;2023-05-09T08:30:13;101198.75;;;16.27;100.00
73516;BME280;61763;51.416;5.442;2023-05-09T08:32:38;101205.69;;;16.18;100.00
73516;BME280;61763;51.416;5.442;2023-05-09T08:35:04;101203.94;;;16.17;100.00
73516;BME280;61763;51.416;5.442;2023-05-09T08:37:30;101196.84;;;16.15;100.00
73516;BME280;61763;51.416;5.442;2023-05-09T08:39:55;101194.13;;;16.15;100.00
73516;BME280;61763;51.416;5.442;2023-05-09T08:42:21;101197.53;;;16.18;100.00
73516;BME280;61763;51.416;5.442;2023-05-09T08:44:47;101192.41;;;16.14;100.00
73516;BME280;61763;51.416;5.442;2023-05-09T08:47:13;101193.91;;;16.05;100.00
73516;BME280;61763;51.416;5.442;2023-05-09T08:49:39;101196.41;;;16.21;100.00
73516;BME280;61763;51.416;5.442;2023-05-09T08:52:05;101189.50;;;16.42;100.00
73516;BME280;61763;51.416;5.442;2023-05-09T08:54:31;101188.41;;;16.32;100.00
73516;BME280;61763;51.416;5.442;2023-05-09T08:56:59;101189.97;;;16.09;100.00
73516;BME280;61763;51.416;5.442;2023-05-09T08:59:25;101183.63;;;15.96;100.00
73516;BME280;61763;51.416;5.442;2023-05-09T09:01:52;101194.06;;;15.89;100.00
73516;BME280;61763;51.416;5.442;2023-05-09T09:04:17;101192.97;;;15.50;100.00
73516;BME280;61763;51.416;5.442;2023-05-09T09:06:43;101184.69;;;15.51;100.00
73516;BME280;61763;51.416;5.442;2023-05-09T09:09:10;101195.78;;;15.48;100.00
73516;BME280;61763;51.416;5.442;2023-05-09T09:11:36;101195.28;;;15.56;100.00
73516;BME280;61763;51.416;5.442;2023-05-09T09:14:22;101183.22;;;15.33;100.00
73516;BME280;61763;51.416;5.442;2023-05-09T09:16:50;101188.06;;;15.28;100.00
73516;BME280;61763;51.416;5.442;2023-05-09T09:19:16;101182.31;;;15.18;100.00
73516;BME280;61763;51.416;5.442;2023-05-09T09:21:45;101176.81;;;15.05;100.00
73516;BME280;61763;51.416;5.442;2023-05-09T09:24:18;101175.25;;;15.30;100.00
73516;BME280;61763;51.416;5.442;2023-05-09T09:26:47;101174.97;;;15.20;100.00
73516;BME280;61763;51.416;5.442;2023-05-09T09:29:13;101169.63;;;15.33;100.00
73516;BME280;61763;51.416;5.442;2023-05-09T09:31:43;101173.00;;;15.36;100.00
73516;BME280;61763;51.416;5.442;2023-05-09T09:34:09;101168.91;;;15.44;100.00
73516;BME280;61763;51.416;5.442;2023-05-09T09:36:34;101168.88;;;15.58;100.00
73516;BME280;61763;51.416;5.442;2023-05-09T09:39:03;101155.22;;;15.72;100.00
73516;BME280;61763;51.416;5.442;2023-05-09T09:41:33;101158.09;;;15.84;100.00
73516;BME280;61763;51.416;5.442;2023-05-09T09:44:08;101156.50;;;15.94;100.00
73516;BME280;61763;51.416;5.442;2023-05-09T09:46:41;101161.03;;;16.08;100.00
73516;BME280;61763;51.416;5.442;2023-05-09T09:49:13;101152.31;;;16.16;100.00
73516;BME280;61763;51.416;5.442;2023-05-09T09:51:42;101142.81;;;16.08;100.00
73516;BME280;61763;51.416;5.442;2023-05-09T09:54:10;101153.25;;;16.02;100.00
73516;BME280;61763;51.416;5.442;2023-05-09T09:59:21;101150.44;;;16.16;100.00
73516;BME280;61763;51.416;5.442;2023-05-09T10:02:04;101130.09;;;16.22;100.00
73516;BME280;61763;51.416;5.442;2023-05-09T10:04:33;101138.13;;;16.10;100.00
73516;BME280;61763;51.416;5.442;2023-05-09T10:07:06;101141.06;;;16.07;100.00
73516;BME280;61763;51.416;5.442;2023-05-09T10:09:32;101146.28;;;15.98;100.00
73516;BME280;61763;51.416;5.442;2023-05-09T10:12:03;101137.66;;;15.91;100.00
73516;BME280;61763;51.416;5.442;2023-05-09T10:14:31;101136.00;;;15.88;100.00
73516;BME280;61763;51.416;5.442;2023-05-09T10:16:59;101137.34;;;15.68;100.00
73516;BME280;61763;51.416;5.442;2023-05-09T10:19:26;101133.94;;;15.65;100.00
73516;BME280;61763;51.416;5.442;2023-05-09T10:21:55;101127.44;;;15.67;100.00
73516;BME280;61763;51.416;5.442;2023-05-09T10:24:33;101131.13;;;15.39;100.00
73516;BME280;61763;51.416;5.442;2023-05-09T10:27:03;101133.34;;;15.47;100.00
73516;BME280;61763;51.416;5.442;2023-05-09T10:29:35;101126.34;;;15.42;100.00
73516;BME280;61763;51.416;5.442;2023-05-09T10:32:15;101135.88;;;15.35;100.00
73516;BME280;61763;51.416;5.442;2023-05-09T10:34:44;101125.28;;;15.45;100.00
73516;BME280;61763;51.416;5.442;2023-05-09T10:37:12;101115.59;;;15.27;100.00
73516;BME280;61763;51.416;5.442;2023-05-09T10:39:38;101124.28;;;15.19;100.00
73516;BME280;61763;51.416;5.442;2023-05-09T10:42:06;101123.66;;;15.28;100.00
73516;BME280;61763;51.416;5.442;2023-05-09T10:44:31;101116.13;;;15.19;100.00
73516;BME280;61763;51.416;5.442;2023-05-09T10:46:58;101114.81;;;14.83;100.00
73516;BME280;61763;51.416;5.442;2023-05-09T10:49:23;101109.19;;;14.71;100.00
73516;BME280;61763;51.416;5.442;2023-05-09T10:51:49;101110.66;;;14.63;100.00
73516;BME280;61763;51.416;5.442;2023-05-09T10:54:28;101100.84;;;14.75;100.00
73516;BME280;61763;51.416;5.442;2023-05-09T10:56:54;101111.50;;;14.63;100.00
73516;BME280;61763;51.416;5.442;2023-05-09T11:02:03;101112.06;;;14.54;100.00
73516;BME280;61763;51.416;5.442;2023-05-09T11:04:29;101105.06;;;14.50;100.00
73516;BME280;61763;51.416;5.442;2023-05-09T11:06:56;101102.84;;;14.42;100.00
73516;BME280;61763;51.416;5.442;2023-05-09T11:09:25;101102.66;;;14.45;100.00
73516;BME280;61763;51.416;5.442;2023-05-09T11:12:11;101093.34;;;14.49;100.00
73516;BME280;61763;51.416;5.442;2023-05-09T11:14:47;101096.72;;;14.53;100.00
73516;BME280;61763;51.416;5.442;2023-05-09T11:22:27;101089.19;;;14.44;100.00
73516;BME280;61763;51.416;5.442;2023-05-09T11:25:05;101080.28;;;14.56;100.00
73516;BME280;61763;51.416;5.442;2023-05-09T11:30:09;101081.22;;;14.41;100.00
73516;BME280;61763;51.416;5.442;2023-05-09T11:32:46;101075.50;;;14.31;100.00
73516;BME280;61763;51.416;5.442;2023-05-09T11:37:52;101083.53;;;14.32;100.00
73516;BME280;61763;51.416;5.442;2023-05-09T11:40:24;101075.69;;;14.28;100.00
73516;BME280;61763;51.416;5.442;2023-05-09T11:42:52;101073.06;;;14.26;100.00
73516;BME280;61763;51.416;5.442;2023-05-09T11:45:18;101067.66;;;14.41;100.00
73516;BME280;61763;51.416;5.442;2023-05-09T11:47:44;101066.69;;;14.42;100.00
73516;BME280;61763;51.416;5.442;2023-05-09T11:50:11;101061.81;;;14.47;100.00
73516;BME280;61763;51.416;5.442;2023-05-09T11:52:37;101063.88;;;14.58;100.00
73516;BME280;61763;51.416;5.442;2023-05-09T11:55:10;101058.66;;;14.69;100.00
73516;BME280;61763;51.416;5.442;2023-05-09T11:57:54;101055.84;;;14.56;100.00
73516;BME280;61763;51.416;5.442;2023-05-09T12:00:22;101051.66;;;14.50;100.00
73516;BME280;61763;51.416;5.442;2023-05-09T12:02:48;101051.66;;;14.36;100.00
73516;BME280;61763;51.416;5.442;2023-05-09T12:05:16;101047.47;;;14.30;100.00
73516;BME280;61763;51.416;5.442;2023-05-09T12:07:43;101042.91;;;14.31;100.00
73516;BME280;61763;51.416;5.442;2023-05-09T12:10:13;101043.47;;;14.07;100.00
73516;BME280;61763;51.416;5.442;2023-05-09T12:12:44;101034.34;;;13.94;100.00
73516;BME280;61763;51.416;5.442;2023-05-09T12:15:11;101039.00;;;13.92;100.00
73516;BME280;61763;51.416;5.442;2023-05-09T12:17:38;101036.97;;;13.95;100.00
73516;BME280;61763;51.416;5.442;2023-05-09T12:20:03;101048.00;;;13.92;100.00
73516;BME280;61763;51.416;5.442;2023-05-09T12:22:30;101042.97;;;13.86;100.00
73516;BME280;61763;51.416;5.442;2023-05-09T12:24:59;101041.81;;;13.90;100.00
73516;BME280;61763;51.416;5.442;2023-05-09T12:27:25;101030.66;;;13.80;100.00
73516;BME280;61763;51.416;5.442;2023-05-09T12:29:53;101030.66;;;13.80;100.00
73516;BME280;61763;51.416;5.442;2023-05-09T12:32:18;101031.72;;;13.92;100.00
73516;BME280;61763;51.416;5.442;2023-05-09T12:34:44;101019.03;;;13.78;100.00
73516;BME280;61763;51.416;5.442;2023-05-09T12:37:15;101025.94;;;13.84;100.00
73516;BME280;61763;51.416;5.442;2023-05-09T12:39:43;101018.78;;;13.97;100.00
73516;BME280;61763;51.416;5.442;2023-05-09T12:42:12;101006.47;;;14.06;100.00
73516;BME280;61763;51.416;5.442;2023-05-09T12:44:37;101005.59;;;14.06;100.00
73516;BME280;61763;51.416;5.442;2023-05-09T12:47:03;101000.25;;;14.18;100.00
73516;BME280;61763;51.416;5.442;2023-05-09T12:49:30;101004.13;;;14.14;100.00
73516;BME280;61763;51.416;5.442;2023-05-09T12:51:58;101000.47;;;14.15;100.00
73516;BME280;61763;51.416;5.442;2023-05-09T12:54:25;101000.63;;;14.41;100.00
73516;BME280;61763;51.416;5.442;2023-05-09T12:56:52;100997.56;;;14.47;100.00
73516;BME280;61763;51.416;5.442;2023-05-09T12:59:25;100996.00;;;14.43;100.00
73516;BME280;61763;51.416;5.442;2023-05-09T13:01:57;100999.97;;;14.52;100.00
73516;BME280;61763;51.416;5.442;2023-05-09T13:04:24;100998.22;;;14.51;100.00
73516;BME280;61763;51.416;5.442;2023-05-09T13:06:53;100996.84;;;14.44;100.00
73516;BME280;61763;51.416;5.442;2023-05-09T13:09:22;100988.69;;;14.58;100.00